Terminal Aerodrome Forecast
Issued by NWS Atlanta, GA

Home | Current Version | Previous Version | Text Only | Print | Product List | Glossary On
Versions: 1 2 3 4 5 6 7 8 9 10 11 12 13
594
FTUS42 KFFC 111135
TAFMCN
TAF
KMCN 111135Z 1112/1212 08004KT P6SM BKN025
     FM111600 09006KT P6SM BKN035
     FM120100 09004KT P6SM VCSH BKN025
     FM120500 10003KT 5SM -RA BR OVC015
     FM120900 13002KT 2SM -RADZ BR OVC007=

USA.gov is the U.S. government's official web portal to all federal, state and local government web resources and services.